Time;durP1;ratioP1;P1;durP2;ratioP2;P2;SDS_P1;SDS_P2;PMS_P1;PMS_P2;Temp;Humidity;BMP_temperature;BMP_pressure;BME280_temperature;BME280_humidity;BME280_pressure;Samples;Min_cycle;Max_cycle;Signal;HPM_P1;HPM_P2
2022/06/24 00:02:12;;;;;;;12.70;7.00;;;;;;;13.55;98.14;99978.30;105000;1273;62395;-68
2022/06/24 00:05:07;;;;;;;14.90;7.40;;;;;;;13.55;98.31;99972.08;105204;1274;73036;-71
2022/06/24 00:07:56;;;;;;;13.60;8.00;;;;;;;13.55;98.63;99971.17;105073;1273;69839;-70
2022/06/24 00:10:44;;;;;;;14.40;7.40;;;;;;;13.56;99.60;99970.89;104762;1274;74317;-68
2022/06/24 00:13:39;;;;;;;15.20;7.50;;;;;;;13.57;99.68;99973.14;104880;1274;59546;-68
2022/06/24 00:16:26;;;;;;;15.20;7.60;;;;;;;13.57;99.77;99971.73;105005;1274;60986;-67
2022/06/24 00:19:16;;;;;;;15.70;8.10;;;;;;;13.57;100.00;99973.46;105134;1274;70981;-69
2022/06/24 00:22:12;;;;;;;16.70;8.30;;;;;;;13.58;100.00;99975.11;105188;1272;68963;-67
2022/06/24 00:25:20;;;;;;;17.30;9.30;;;;;;;13.59;100.00;99973.08;104866;1274;73391;-68
2022/06/24 00:28:10;;;;;;;16.50;8.40;;;;;;;13.60;100.00;99971.94;104910;1273;60690;-68
2022/06/24 00:31:02;;;;;;;14.50;8.00;;;;;;;13.62;100.00;99969.45;104804;1273;62033;-69
2022/06/24 00:33:50;;;;;;;14.00;8.50;;;;;;;13.63;100.00;99967.61;105033;1273;74707;-67
2022/06/24 00:36:39;;;;;;;15.20;8.70;;;;;;;13.64;100.00;99971.23;104882;1274;69429;-67
2022/06/24 00:39:35;;;;;;;16.20;9.40;;;;;;;13.63;100.00;99969.66;105047;1274;74188;-68
2022/06/24 00:42:24;;;;;;;19.50;9.60;;;;;;;13.63;100.00;99973.27;105064;1272;60109;-68
2022/06/24 00:45:38;;;;;;;17.20;10.10;;;;;;;13.64;100.00;99971.05;104785;1273;59647;-67
2022/06/24 00:48:30;;;;;;;15.60;8.70;;;;;;;13.66;100.00;99971.79;104996;1274;73451;-69
2022/06/24 00:51:20;;;;;;;18.50;10.20;;;;;;;13.67;100.00;99969.06;104962;1274;69630;-65
2022/06/24 00:54:13;;;;;;;18.90;10.30;;;;;;;13.68;100.00;99967.88;104870;1274;74156;-63
2022/06/24 00:57:02;;;;;;;19.30;9.80;;;;;;;13.69;100.00;99969.53;104853;1273;60131;-67
2022/06/24 00:59:52;;;;;;;17.10;9.90;;;;;;;13.71;100.00;99967.27;104807;1274;60239;-65
2022/06/24 01:02:42;;;;;;;17.30;9.40;;;;;;;13.73;100.00;99968.49;105067;1274;73683;-68
2022/06/24 01:05:33;;;;;;;15.60;9.30;;;;;;;13.75;100.00;99968.99;104997;1274;69288;-66
2022/06/24 01:08:20;;;;;;;17.60;8.60;;;;;;;13.77;100.00;99967.22;104968;1272;73296;-66
2022/06/24 01:11:08;;;;;;;18.10;9.90;;;;;;;13.80;100.00;99965.90;104937;1273;59771;-65
2022/06/24 01:13:56;;;;;;;17.80;10.00;;;;;;;13.83;100.00;99967.23;104712;1274;60500;-67
2022/06/24 01:16:45;;;;;;;16.60;9.70;;;;;;;13.86;100.00;99964.26;104850;1274;74540;-66
2022/06/24 01:19:32;;;;;;;16.70;9.50;;;;;;;13.89;99.98;99967.11;105076;1274;66872;-67
2022/06/24 01:22:22;;;;;;;16.30;9.30;;;;;;;13.94;100.00;99966.88;105043;1272;73704;-69
2022/06/24 01:25:12;;;;;;;17.20;9.20;;;;;;;14.00;100.00;99968.52;105139;1274;59724;-68
2022/06/24 01:28:00;;;;;;;18.80;9.10;;;;;;;14.05;100.00;99966.39;104861;1274;60787;-67
2022/06/24 01:30:47;;;;;;;17.20;9.50;;;;;;;14.10;99.99;99968.08;104901;1274;73721;-59
2022/06/24 01:33:35;;;;;;;15.20;8.90;;;;;;;14.16;99.79;99970.92;104847;1274;69593;-67
2022/06/24 01:36:23;;;;;;;18.40;9.60;;;;;;;14.22;99.59;99973.55;105056;1273;72882;-64
2022/06/24 01:39:12;;;;;;;19.00;8.90;;;;;;;14.27;99.51;99969.27;104946;1274;59680;-66
2022/06/24 01:42:00;;;;;;;14.20;8.70;;;;;;;14.32;98.39;99974.00;104733;1273;62014;-66
2022/06/24 01:44:48;;;;;;;15.60;9.30;;;;;;;14.35;98.15;99968.63;105019;1274;73651;-67
2022/06/24 01:47:36;;;;;;;19.80;10.00;;;;;;;14.38;97.80;99969.54;104742;1273;65892;-66
2022/06/24 01:50:24;;;;;;;18.10;10.20;;;;;;;14.39;97.27;99965.36;104844;1273;72114;-67
2022/06/24 01:53:12;;;;;;;15.90;9.60;;;;;;;14.40;96.93;99967.20;104761;1273;60054;-68
2022/06/24 01:56:00;;;;;;;17.90;9.20;;;;;;;14.40;96.70;99967.04;104886;1274;60191;-67
2022/06/24 01:58:49;;;;;;;20.30;11.20;;;;;;;14.39;96.22;99964.20;105205;1274;73705;-69
2022/06/24 02:01:41;;;;;;;18.40;10.60;;;;;;;14.39;96.43;99965.54;105007;1273;69973;-67
2022/06/24 02:04:29;;;;;;;19.40;9.70;;;;;;;14.38;96.26;99970.74;105247;1273;74727;-68
2022/06/24 02:07:16;;;;;;;17.60;10.10;;;;;;;14.40;96.05;99979.54;105007;1274;59572;-65
2022/06/24 02:13:28;;;;;;;16.00;8.90;;;;;;;14.41;95.83;99970.85;105078;1274;73748;-66
2022/06/24 02:16:18;;;;;;;15.60;9.00;;;;;;;14.42;95.44;99967.86;104805;1273;68582;-64
2022/06/24 02:19:08;;;;;;;17.50;8.90;;;;;;;14.43;95.44;99966.16;104759;1274;73192;-66
2022/06/24 02:21:55;;;;;;;13.20;8.80;;;;;;;14.45;95.33;99968.10;104860;1274;61293;-66
2022/06/24 02:24:43;;;;;;;16.20;9.00;;;;;;;14.48;95.32;99971.63;105022;1274;59676;-65
2022/06/24 02:27:31;;;;;;;17.00;8.60;;;;;;;14.50;95.24;99969.84;104899;1274;73699;-64
2022/06/24 02:30:20;;;;;;;15.70;7.80;;;;;;;14.53;95.14;99967.78;104926;1274;69551;-65
2022/06/24 02:33:09;;;;;;;14.50;9.00;;;;;;;14.55;94.88;99970.23;105122;1274;71959;-66
2022/06/24 02:35:57;;;;;;;14.10;8.40;;;;;;;14.58;94.76;99975.50;104795;1274;60535;-64
2022/06/24 02:38:44;;;;;;;16.00;8.50;;;;;;;14.63;94.27;99975.04;105235;1273;62012;-65
2022/06/24 02:41:33;;;;;;;14.50;8.70;;;;;;;14.67;94.01;99979.86;104762;1273;74737;-67
2022/06/24 02:44:20;;;;;;;15.00;8.70;;;;;;;14.70;93.89;99979.92;105029;1274;68477;-65
2022/06/24 02:47:08;;;;;;;17.30;8.20;;;;;;;14.72;93.40;99982.80;104896;1273;73289;-65
2022/06/24 02:49:56;;;;;;;14.10;7.90;;;;;;;14.70;93.22;99983.45;104878;1274;61198;-65
2022/06/24 02:52:44;;;;;;;16.70;8.20;;;;;;;14.71;93.39;99981.92;104965;1274;60236;-66
2022/06/24 02:55:32;;;;;;;14.70;7.60;;;;;;;14.73;93.05;99979.59;104803;1273;74569;-68
2022/06/24 02:58:20;;;;;;;14.50;8.10;;;;;;;14.76;93.20;99980.23;104913;1273;68487;-67
2022/06/24 03:01:10;;;;;;;13.00;7.60;;;;;;;14.80;92.88;99981.29;105148;1274;71558;-66
2022/06/24 03:03:58;;;;;;;14.20;7.80;;;;;;;14.85;92.71;99981.88;104790;1272;60822;-67
2022/06/24 03:06:46;;;;;;;14.50;8.00;;;;;;;14.88;92.45;99984.20;104905;1273;60361;-68
2022/06/24 03:09:34;;;;;;;13.20;7.10;;;;;;;14.93;92.21;99980.34;104988;1274;74695;-69
2022/06/24 03:12:22;;;;;;;13.30;7.90;;;;;;;14.98;91.70;99981.66;104902;1274;68655;-68
2022/06/24 03:15:11;;;;;;;15.10;8.20;;;;;;;15.02;91.55;99978.23;104974;1274;74703;-69
2022/06/24 03:17:59;;;;;;;14.10;8.10;;;;;;;15.06;91.33;99977.81;105081;1274;59739;-67
2022/06/24 03:20:49;;;;;;;13.30;8.00;;;;;;;15.10;90.83;99976.88;104923;1273;60528;-68
2022/06/24 03:23:39;;;;;;;15.80;8.90;;;;;;;15.15;90.73;99981.09;104908;1274;73755;-67
2022/06/24 03:26:28;;;;;;;14.20;8.10;;;;;;;15.20;90.21;99977.95;104994;1274;67276;-66
2022/06/24 03:29:15;;;;;;;15.40;7.50;;;;;;;15.25;90.00;99976.39;105019;1274;73887;-71
2022/06/24 03:32:04;;;;;;;15.00;8.20;;;;;;;15.28;89.53;99974.58;105039;1273;59679;-66
2022/06/24 03:34:53;;;;;;;13.80;7.50;;;;;;;15.40;89.09;99979.05;105478;1274;60281;-66
2022/06/24 03:37:40;;;;;;;13.90;8.10;;;;;;;15.46;89.08;99982.47;105049;1274;72893;-66
2022/06/24 03:40:33;;;;;;;16.10;8.10;;;;;;;15.54;88.81;99983.86;104789;1274;68541;-69
2022/06/24 03:43:21;;;;;;;13.50;7.80;;;;;;;15.62;88.37;99986.38;104854;1274;72501;-70
2022/06/24 03:46:10;;;;;;;15.70;8.60;;;;;;;15.71;87.97;99978.96;104782;1273;59759;-67
2022/06/24 03:48:58;;;;;;;13.80;8.00;;;;;;;15.79;87.55;99980.49;104846;1274;59560;-71
2022/06/24 03:51:47;;;;;;;14.80;7.60;;;;;;;15.85;86.94;99979.69;104931;1274;74575;-73
2022/06/24 03:54:35;;;;;;;13.10;7.50;;;;;;;15.92;86.35;99982.02;105124;1274;69025;-69
2022/06/24 03:57:23;;;;;;;12.50;7.50;;;;;;;16.01;85.54;99985.48;104814;1274;72453;-70
2022/06/24 04:00:12;;;;;;;15.00;7.40;;;;;;;16.10;85.34;99983.82;104808;1273;59730;-65
2022/06/24 04:02:59;;;;;;;14.00;8.10;;;;;;;16.18;84.86;99983.31;104973;1274;59675;-65
2022/06/24 04:05:47;;;;;;;13.60;7.90;;;;;;;16.28;84.32;99985.59;105354;1274;74093;-67
2022/06/24 04:08:35;;;;;;;20.80;9.00;;;;;;;16.37;83.55;99983.52;104891;1274;68408;-68
2022/06/24 04:11:26;;;;;;;15.30;8.50;;;;;;;16.48;82.90;99978.25;105122;1274;72705;-68
2022/06/24 04:14:14;;;;;;;14.30;7.50;;;;;;;16.61;82.57;99977.27;104804;1274;61433;-68
2022/06/24 04:17:03;;;;;;;16.40;8.00;;;;;;;16.74;81.81;99977.19;104678;1272;61006;-68
2022/06/24 04:19:52;;;;;;;16.80;8.10;;;;;;;16.88;80.92;99978.95;104903;1274;74514;-69
2022/06/24 04:22:42;;;;;;;16.10;7.60;;;;;;;17.06;80.23;99979.65;105705;1274;68770;-68
2022/06/24 04:25:29;;;;;;;15.70;7.90;;;;;;;17.24;79.18;99978.57;104879;1274;72758;-70
2022/06/24 04:28:17;;;;;;;15.90;7.70;;;;;;;17.45;77.65;99979.16;104722;1273;59690;-70
2022/06/24 04:31:05;;;;;;;16.10;6.90;;;;;;;17.70;76.24;99982.96;105001;1274;59641;-69
2022/06/24 04:33:53;;;;;;;14.20;7.10;;;;;;;17.99;75.43;99977.29;104808;1274;74345;-70
2022/06/24 04:36:41;;;;;;;15.90;7.00;;;;;;;18.32;73.41;99977.79;104819;1274;69578;-68
2022/06/24 04:39:29;;;;;;;14.20;7.40;;;;;;;18.66;71.84;99978.34;105226;1273;73054;-71
2022/06/24 04:42:17;;;;;;;12.60;6.80;;;;;;;19.04;70.57;99977.47;104809;1274;59593;-68
2022/06/24 04:45:07;;;;;;;15.60;5.90;;;;;;;19.45;68.87;99983.54;104814;1274;60804;-69
2022/06/24 04:47:55;;;;;;;14.30;6.10;;;;;;;19.98;67.23;99986.64;105209;1274;73343;-70
2022/06/24 04:50:43;;;;;;;11.50;5.80;;;;;;;20.61;65.79;99984.77;104906;1274;67945;-71
2022/06/24 04:53:32;;;;;;;12.30;6.00;;;;;;;21.24;61.75;99982.52;105084;1274;73464;-69
2022/06/24 04:56:21;;;;;;;13.50;6.10;;;;;;;21.85;61.10;99983.15;105163;1273;59646;-69
2022/06/24 04:59:09;;;;;;;11.40;5.40;;;;;;;22.49;57.86;99984.95;104791;1274;59637;-69
2022/06/24 05:01:57;;;;;;;11.30;5.40;;;;;;;23.09;55.82;99980.80;104832;1274;73606;-68
2022/06/24 05:04:50;;;;;;;13.10;5.40;;;;;;;23.73;53.31;99981.52;104991;1274;67804;-70
2022/06/24 05:07:39;;;;;;;14.10;5.30;;;;;;;24.30;51.40;99977.96;104822;1274;74303;-71
2022/06/24 05:10:27;;;;;;;11.10;4.90;;;;;;;24.74;48.97;99983.08;105398;1273;59637;-69
2022/06/24 05:13:15;;;;;;;12.90;5.10;;;;;;;25.03;47.72;99984.00;106680;1274;60416;-70
2022/06/24 05:16:03;;;;;;;9.90;5.10;;;;;;;25.53;47.59;99977.05;104937;1274;74547;-74
2022/06/24 05:19:11;;;;;;;11.00;4.80;;;;;;;26.13;45.70;99976.48;105069;1274;68331;-75
2022/06/24 05:21:59;;;;;;;10.30;4.30;;;;;;;26.58;44.13;99976.27;104948;1274;278191;-78
2022/06/24 05:24:47;;;;;;;12.70;4.50;;;;;;;26.86;42.56;99974.66;105284;1274;59687;-76
2022/06/24 05:27:35;;;;;;;10.50;4.90;;;;;;;27.42;42.56;99970.03;104924;1273;62239;-75
2022/06/24 05:30:23;;;;;;;11.90;4.30;;;;;;;28.20;40.59;99974.73;105326;1274;72695;-73
2022/06/24 05:33:10;;;;;;;11.60;4.10;;;;;;;28.84;38.82;99975.09;105060;1272;68099;-72
2022/06/24 05:35:58;;;;;;;10.10;3.80;;;;;;;29.50;37.78;99973.80;105148;1274;72685;-72
2022/06/24 05:38:46;;;;;;;7.90;3.60;;;;;;;30.20;35.51;99972.72;105152;1274;59768;-75
2022/06/24 05:41:37;;;;;;;11.40;4.00;;;;;;;30.48;34.28;99976.44;105003;1274;60359;-70
2022/06/24 05:44:25;;;;;;;9.30;3.70;;;;;;;30.89;33.53;99970.38;105164;1274;73033;-73
2022/06/24 05:47:13;;;;;;;8.80;3.30;;;;;;;31.20;32.82;99972.49;105017;1274;66631;-73
2022/06/24 05:50:00;;;;;;;9.00;3.20;;;;;;;31.48;32.03;99976.79;105035;1274;74299;-76
2022/06/24 05:56:00;;;;;;;8.30;2.90;;;;;;;31.73;31.78;99975.28;105580;1274;59653;-76
2022/06/24 05:58:48;;;;;;;7.90;2.90;;;;;;;32.20;30.97;99971.14;105426;1274;73270;-77
2022/06/24 06:01:36;;;;;;;8.00;2.70;;;;;;;32.52;30.48;99977.50;106491;1274;67883;-76
2022/06/24 06:04:24;;;;;;;14.30;3.30;;;;;;;33.04;30.41;99974.43;106550;1274;73051;-76
2022/06/24 06:07:12;;;;;;;9.40;2.90;;;;;;;33.56;29.56;99974.83;105419;1274;59776;-76
2022/06/24 06:10:00;;;;;;;8.40;2.90;;;;;;;33.95;28.38;99972.09;105077;1274;60292;-78
2022/06/24 06:12:47;;;;;;;10.70;2.90;;;;;;;34.18;28.44;99967.80;105015;1274;71954;-73
2022/06/24 06:15:35;;;;;;;11.40;2.70;;;;;;;34.54;27.72;99967.08;105001;1273;68667;-70
2022/06/24 06:18:23;;;;;;;8.50;3.10;;;;;;;34.78;27.24;99966.10;104973;1274;72461;-70
2022/06/24 06:21:12;;;;;;;10.00;3.40;;;;;;;35.14;26.69;99968.25;105137;1274;59703;-73
2022/06/24 06:24:00;;;;;;;10.10;2.50;;;;;;;35.61;26.05;99966.45;105017;1274;61016;-75
2022/06/24 06:26:48;;;;;;;10.00;2.50;;;;;;;35.59;25.25;99969.30;104984;1274;75284;-72
2022/06/24 06:29:36;;;;;;;9.30;2.20;;;;;;;35.22;25.02;99967.66;105039;1273;68478;-75
2022/06/24 06:32:23;;;;;;;6.80;2.00;;;;;;;35.19;25.29;99969.00;104907;1273;73448;-77
2022/06/24 06:35:11;;;;;;;8.40;2.10;;;;;;;35.20;25.19;99962.80;105027;1273;59830;-78
2022/06/24 06:37:59;;;;;;;8.20;2.00;;;;;;;35.15;25.30;99963.77;105011;1274;60553;-76
2022/06/24 06:40:46;;;;;;;7.60;1.90;;;;;;;35.13;24.77;99965.48;104992;1274;74948;-77
2022/06/24 06:43:34;;;;;;;8.90;2.10;;;;;;;34.98;24.57;99965.23;105809;1274;66593;-75
2022/06/24 06:46:22;;;;;;;6.70;1.80;;;;;;;35.12;24.49;99964.41;105032;1274;72019;-77
2022/06/24 06:49:10;;;;;;;7.30;2.10;;;;;;;35.07;24.38;99963.38;105051;1274;59768;-74
2022/06/24 06:52:01;;;;;;;7.00;1.80;;;;;;;35.21;24.20;99962.89;105243;1274;62221;-76
2022/06/24 06:54:49;;;;;;;9.00;2.00;;;;;;;34.94;24.55;99964.88;105228;1274;71583;-75
2022/06/24 06:57:37;;;;;;;8.30;2.00;;;;;;;35.21;24.73;99962.24;105083;1273;68346;-77
2022/06/24 07:00:25;;;;;;;8.60;1.90;;;;;;;35.54;23.66;99969.95;105059;1274;72585;-77
2022/06/24 07:03:13;;;;;;;6.60;2.60;;;;;;;35.73;23.76;99956.55;105195;1274;59696;-76
2022/06/24 07:06:01;;;;;;;8.60;2.00;;;;;;;36.17;23.14;99953.40;104908;1273;60860;-77
2022/06/24 07:08:48;;;;;;;7.20;1.80;;;;;;;36.56;22.56;99954.30;104994;1274;74784;-77
2022/06/24 07:11:36;;;;;;;8.60;2.10;;;;;;;37.16;22.10;99954.70;104888;1273;67419;-77
2022/06/24 07:14:24;;;;;;;7.00;2.00;;;;;;;37.69;21.81;99954.95;105078;1274;72044;-79
2022/06/24 07:17:11;;;;;;;7.20;2.10;;;;;;;37.71;20.95;99950.09;105355;1274;59634;-79
2022/06/24 07:19:59;;;;;;;6.00;1.80;;;;;;;38.16;21.09;99946.69;105073;1274;59536;-77
2022/06/24 07:22:47;;;;;;;6.50;1.80;;;;;;;38.16;20.37;99947.85;106078;1274;71698;-76
2022/06/24 07:25:35;;;;;;;7.60;2.10;;;;;;;37.98;20.48;99948.06;106549;1274;68155;-79
2022/06/24 07:28:24;;;;;;;10.50;2.10;;;;;;;37.71;20.82;99947.59;106394;1274;71451;-76
2022/06/24 07:31:18;;;;;;;9.80;2.10;;;;;;;38.11;20.50;99947.09;105824;1274;59752;-78
2022/06/24 07:34:06;;;;;;;7.60;1.70;;;;;;;38.58;20.12;99940.88;105611;1274;59755;-75
2022/06/24 07:36:54;;;;;;;8.20;1.90;;;;;;;38.46;19.91;99941.27;105781;1272;73191;-77
2022/06/24 07:39:42;;;;;;;6.00;1.80;;;;;;;37.67;20.48;99943.88;105220;1274;68149;-79
2022/06/24 07:42:30;;;;;;;8.10;1.80;;;;;;;37.19;20.93;99945.72;106538;1274;74180;-75
2022/06/24 07:45:19;;;;;;;6.80;1.90;;;;;;;36.84;21.31;99937.67;106206;1274;59311;-75
2022/06/24 07:48:08;;;;;;;6.90;1.60;;;;;;;36.78;21.30;99933.70;104947;1274;61406;-74
2022/06/24 07:50:55;;;;;;;6.20;1.90;;;;;;;37.21;21.24;99931.56;105413;1274;73149;-75
2022/06/24 07:53:47;;;;;;;7.00;2.10;;;;;;;37.73;21.01;99933.13;106659;1273;67789;-75
2022/06/24 07:56:56;;;;;;;6.60;1.60;;;;;;;38.20;20.32;99929.60;105370;1274;73804;-73
2022/06/24 07:59:46;;;;;;;7.10;1.50;;;;;;;38.98;19.65;99923.16;105146;1274;59770;-75
2022/06/24 08:02:34;;;;;;;6.60;1.60;;;;;;;39.25;18.70;99936.03;105296;1274;60538;-75
2022/06/24 08:05:23;;;;;;;6.20;1.40;;;;;;;38.94;18.68;99933.27;105516;1274;71732;-78
2022/06/24 08:08:12;;;;;;;6.70;1.90;;;;;;;38.64;19.00;99932.08;105018;1274;68109;-74
2022/06/24 08:11:00;;;;;;;7.20;2.20;;;;;;;38.46;19.64;99933.79;105022;1273;73285;-76
2022/06/24 08:13:54;;;;;;;6.60;1.90;;;;;;;38.52;19.62;99931.42;104832;1274;59697;-75
2022/06/24 08:16:43;;;;;;;8.10;2.00;;;;;;;38.23;19.36;99928.67;105054;1274;60252;-71
2022/06/24 08:19:35;;;;;;;6.60;1.80;;;;;;;37.96;19.54;99930.63;105012;1274;73891;-77
2022/06/24 08:22:22;;;;;;;6.70;1.80;;;;;;;37.38;19.79;99925.53;104971;1274;67755;-77
2022/06/24 08:25:10;;;;;;;9.10;2.10;;;;;;;37.30;20.38;99922.94;104979;1273;71346;-77
2022/06/24 08:28:08;;;;;;;6.30;1.70;;;;;;;37.66;20.31;99911.58;105269;1274;59737;-75
2022/06/24 08:30:56;;;;;;;7.60;2.00;;;;;;;37.82;20.03;99906.71;105007;1274;59662;-75
2022/06/24 08:33:52;;;;;;;6.70;2.40;;;;;;;37.71;20.61;99903.55;104904;1274;74584;-76
2022/06/24 08:36:40;;;;;;;7.50;2.50;;;;;;;37.61;21.01;99903.63;105145;1274;67993;-75
2022/06/24 08:39:28;;;;;;;8.30;2.60;;;;;;;37.20;20.53;99904.88;105108;1274;72232;-73
2022/06/24 08:42:16;;;;;;;7.00;2.20;;;;;;;36.60;21.00;99904.38;105060;1274;59670;-73
2022/06/24 08:45:05;;;;;;;6.60;2.10;;;;;;;36.51;21.92;99895.64;104840;1273;59645;-80
2022/06/24 08:47:54;;;;;;;8.30;2.50;;;;;;;36.15;21.67;99903.03;104912;1274;73599;-77
2022/06/24 08:50:42;;;;;;;7.90;2.50;;;;;;;35.88;21.92;99896.44;104956;1273;66788;-76
2022/06/24 08:53:33;;;;;;;8.10;2.40;;;;;;;35.55;21.95;99890.27;105007;1274;73360;-77
2022/06/24 08:56:21;;;;;;;8.50;2.60;;;;;;;35.69;22.49;99879.67;104954;1274;59941;-79
2022/06/24 08:59:09;;;;;;;11.90;3.10;;;;;;;35.60;23.37;99878.88;105999;1274;59643;-78
2022/06/24 09:01:59;;;;;;;12.70;3.10;;;;;;;35.80;23.88;99865.79;105835;1274;73374;-76
2022/06/24 09:04:47;;;;;;;9.30;2.70;;;;;;;35.92;23.19;99869.89;105301;1274;68095;-76
2022/06/24 09:07:35;;;;;;;7.00;2.50;;;;;;;36.05;23.00;99862.77;105462;1274;71918;-79
2022/06/24 09:10:23;;;;;;;6.90;2.70;;;;;;;36.09;22.79;99867.15;105028;1274;59758;-78
2022/06/24 09:13:21;;;;;;;8.10;2.60;;;;;;;35.96;22.94;99862.20;105308;1274;60255;-79
2022/06/24 09:16:10;;;;;;;8.50;2.40;;;;;;;36.13;22.42;99862.90;105453;1274;71670;-76
2022/06/24 09:19:00;;;;;;;9.50;2.60;;;;;;;35.94;22.14;99865.83;105389;1274;66855;-72
2022/06/24 09:21:48;;;;;;;7.90;2.40;;;;;;;35.60;22.18;99866.09;104969;1274;75188;-78
2022/06/24 09:24:45;;;;;;;7.70;2.40;;;;;;;35.30;22.47;99863.64;104751;1274;59708;-75
2022/06/24 09:27:35;;;;;;;9.20;2.50;;;;;;;35.32;22.67;99858.98;104958;1274;63185;-76
2022/06/24 09:30:34;;;;;;;8.90;2.50;;;;;;;35.10;22.94;99855.48;105123;1274;74705;-77
2022/06/24 09:33:21;;;;;;;6.50;2.40;;;;;;;35.14;23.00;99866.95;105082;1274;67128;-75
2022/06/24 09:36:25;;;;;;;7.60;2.30;;;;;;;34.81;23.26;99861.14;105105;1274;73225;-76
2022/06/24 09:39:16;;;;;;;5.90;1.90;;;;;;;34.64;23.05;99858.56;104851;1274;59752;-76
2022/06/24 09:42:19;;;;;;;8.40;2.30;;;;;;;34.33;23.97;99855.73;104902;1274;60941;-78
2022/06/24 09:45:10;;;;;;;7.10;2.10;;;;;;;34.23;23.69;99848.97;104809;1274;74027;-71
2022/06/24 09:48:05;;;;;;;5.90;2.00;;;;;;;33.76;23.84;99853.17;104889;1274;66839;-74
2022/06/24 09:51:02;;;;;;;8.00;2.20;;;;;;;33.86;24.31;99849.74;105102;1274;74177;-74
2022/06/24 09:53:51;;;;;;;7.30;2.20;;;;;;;34.00;24.24;99839.01;104962;1274;59850;-75
2022/06/24 09:56:39;;;;;;;7.20;2.10;;;;;;;34.16;23.97;99832.33;104876;1274;60461;-76
2022/06/24 10:02:37;;;;;;;7.50;2.00;;;;;;;34.64;23.28;99848.30;104799;1275;66907;-73
2022/06/24 10:05:28;;;;;;;7.10;1.80;;;;;;;34.37;23.37;99841.80;104902;1274;74419;-76
2022/06/24 10:08:22;;;;;;;8.10;2.00;;;;;;;34.38;23.12;99833.06;105025;1274;59724;-74
2022/06/24 10:11:12;;;;;;;6.70;2.00;;;;;;;34.48;22.93;99838.45;104812;1274;59672;-72
2022/06/24 10:14:01;;;;;;;6.20;2.00;;;;;;;34.31;23.12;99833.60;104682;1277;73657;-75
2022/06/24 10:16:50;;;;;;;7.30;2.20;;;;;;;34.63;22.96;99830.67;104734;1277;68809;-73
2022/06/24 10:19:39;;;;;;;7.00;1.90;;;;;;;35.04;22.44;99815.44;105069;1274;72633;-72
2022/06/24 10:22:46;;;;;;;8.20;2.10;;;;;;;34.87;22.06;99823.85;105204;1274;59735;-73
2022/06/24 10:25:48;;;;;;;6.20;2.30;;;;;;;34.57;22.45;99825.40;104742;1274;60277;-74
2022/06/24 10:29:04;;;;;;;7.60;2.30;;;;;;;34.74;23.28;99814.15;105016;1274;72212;-74
2022/06/24 10:31:54;;;;;;;7.50;2.40;;;;;;;35.47;23.47;99807.52;106628;1274;68075;-75
2022/06/24 10:34:43;;;;;;;6.20;2.00;;;;;;;35.72;22.44;99811.52;104816;1275;73213;-73
2022/06/24 10:37:31;;;;;;;5.90;2.20;;;;;;;36.12;22.32;99805.70;104862;1274;59771;-73
2022/06/24 10:40:24;;;;;;;7.20;1.90;;;;;;;36.38;22.29;99807.55;104897;1274;60857;-73
2022/06/24 10:43:12;;;;;;;6.80;2.20;;;;;;;36.29;22.34;99799.30;104767;1274;72419;-72
2022/06/24 10:46:12;;;;;;;7.90;2.10;;;;;;;36.55;22.50;99799.33;104808;1275;69349;-72
2022/06/24 10:49:01;;;;;;;7.30;2.30;;;;;;;36.52;22.14;99805.14;105063;1274;73382;-73
2022/06/24 10:51:48;;;;;;;7.30;1.90;;;;;;;36.01;22.83;99796.71;105098;1274;59742;-73
2022/06/24 10:54:36;;;;;;;7.30;2.10;;;;;;;35.85;23.13;99801.75;105029;1274;59698;-70
2022/06/24 10:57:25;;;;;;;6.40;1.90;;;;;;;35.46;23.55;99798.71;104948;1274;72146;-72
2022/06/24 11:00:19;;;;;;;7.00;2.00;;;;;;;35.86;23.36;99797.16;104944;1274;66993;-73
2022/06/24 11:03:07;;;;;;;7.00;2.30;;;;;;;35.79;23.03;99804.04;104780;1274;73719;-71
2022/06/24 11:05:55;;;;;;;6.80;2.10;;;;;;;34.99;23.64;99794.30;105121;1273;59768;-74
2022/06/24 11:08:43;;;;;;;7.40;2.40;;;;;;;34.83;23.89;99795.09;105113;1274;59602;-73
2022/06/24 11:11:34;;;;;;;6.90;2.00;;;;;;;34.58;24.46;99795.73;104991;1273;74517;-73
2022/06/24 11:14:26;;;;;;;7.90;2.70;;;;;;;33.91;25.07;99794.33;104892;1274;68557;-73
2022/06/24 11:17:15;;;;;;;7.10;2.40;;;;;;;33.50;25.92;99792.15;105220;1274;73317;-76
2022/06/24 11:20:06;;;;;;;8.20;2.20;;;;;;;32.87;26.81;99789.90;105234;1274;59797;-73
2022/06/24 11:22:54;;;;;;;9.60;2.40;;;;;;;32.15;27.60;99800.85;105015;1274;59639;-74
2022/06/24 11:25:57;;;;;;;7.60;1.90;;;;;;;31.85;28.25;99790.96;104817;1274;73876;-73
2022/06/24 11:28:52;;;;;;;7.10;2.00;;;;;;;31.75;27.73;99792.28;105075;1275;67824;-74
2022/06/24 11:31:41;;;;;;;8.30;2.00;;;;;;;31.36;28.13;99789.11;105100;1274;71729;-73
2022/06/24 11:34:36;;;;;;;6.30;2.10;;;;;;;31.37;27.95;99782.68;105364;1274;59762;-74
2022/06/24 11:37:24;;;;;;;7.30;1.90;;;;;;;30.89;28.04;99778.66;105110;1274;61336;-72
2022/06/24 11:40:24;;;;;;;7.30;2.00;;;;;;;30.38;28.84;99778.17;104774;1274;72864;-75
2022/06/24 11:43:13;;;;;;;9.60;2.00;;;;;;;29.59;29.46;99790.83;105474;1274;69566;-71
2022/06/24 11:46:09;;;;;;;11.60;2.30;;;;;;;28.75;30.99;99783.34;104975;1274;73735;-71
2022/06/24 11:49:12;;;;;;;7.70;1.90;;;;;;;28.17;31.59;99795.01;105245;1274;59698;-73
2022/06/24 11:52:02;;;;;;;7.00;2.10;;;;;;;27.78;31.56;99798.74;105140;1274;60477;-74
2022/06/24 11:54:50;;;;;;;5.90;2.10;;;;;;;27.52;32.92;99796.19;104671;1274;73839;-71
2022/06/24 11:57:41;;;;;;;6.10;2.10;;;;;;;27.37;34.04;99795.20;104668;1274;67978;-73
2022/06/24 12:00:36;;;;;;;6.80;2.40;;;;;;;27.20;35.05;99792.85;104741;1275;74270;-72
2022/06/24 12:03:25;;;;;;;6.90;2.50;;;;;;;27.16;35.39;99790.95;104728;1274;59695;-73
2022/06/24 12:06:14;;;;;;;6.70;2.50;;;;;;;27.00;35.90;99788.75;104955;1274;60594;-70
2022/06/24 12:09:02;;;;;;;7.70;2.50;;;;;;;27.00;35.71;99781.87;104821;1274;72766;-69
2022/06/24 12:11:50;;;;;;;9.50;2.40;;;;;;;26.88;35.50;99787.14;105042;1274;68116;-69
2022/06/24 12:14:39;;;;;;;6.30;2.10;;;;;;;26.71;36.14;99783.40;104912;1274;73294;-70
2022/06/24 12:17:28;;;;;;;6.70;2.40;;;;;;;26.74;36.86;99781.38;104806;1274;59662;-68
2022/06/24 12:20:25;;;;;;;6.80;2.30;;;;;;;26.89;36.99;99772.45;104659;1275;60558;-70
2022/06/24 12:23:19;;;;;;;8.40;2.10;;;;;;;26.92;36.29;99770.10;104998;1272;72791;-71
2022/06/24 12:26:15;;;;;;;7.50;2.40;;;;;;;26.89;37.15;99764.05;104686;1274;67186;-70
2022/06/24 12:29:04;;;;;;;7.40;2.30;;;;;;;26.89;37.03;99754.08;104683;1274;73290;-70
2022/06/24 12:31:54;;;;;;;6.90;2.30;;;;;;;27.00;37.21;99747.30;104746;1274;59768;-72
2022/06/24 12:34:42;;;;;;;8.70;2.40;;;;;;;27.03;35.97;99749.77;104900;1274;59647;-71
2022/06/24 12:37:30;;;;;;;7.60;2.30;;;;;;;26.99;35.26;99750.52;105130;1273;74250;-70
2022/06/24 12:40:24;;;;;;;7.10;2.00;;;;;;;26.87;34.46;99746.04;104838;1274;69610;-71
2022/06/24 12:43:13;;;;;;;7.70;2.20;;;;;;;26.79;35.34;99738.05;104765;1274;72379;-74
2022/06/24 12:46:07;;;;;;;7.20;2.00;;;;;;;26.75;35.25;99741.27;104886;1274;59733;-71
2022/06/24 12:52:02;;;;;;;6.90;2.00;;;;;;;26.92;34.13;99746.55;105288;1274;74683;-70
2022/06/24 12:54:49;;;;;;;7.60;1.80;;;;;;;26.95;32.66;99747.71;104754;1274;68703;-74
2022/06/24 12:57:45;;;;;;;6.40;1.80;;;;;;;26.89;32.47;99740.80;104876;1274;73421;-72
2022/06/24 13:00:33;;;;;;;6.50;2.10;;;;;;;26.92;32.88;99728.77;104908;1274;59679;-71
2022/06/24 13:03:21;;;;;;;7.70;2.20;;;;;;;26.97;32.38;99730.34;104987;1274;60236;-72
2022/06/24 13:06:09;;;;;;;6.40;2.10;;;;;;;26.96;31.85;99738.41;105047;1274;73174;-71
2022/06/24 13:08:57;;;;;;;7.00;1.90;;;;;;;26.92;31.99;99728.19;104864;1274;69546;-71
2022/06/24 13:11:45;;;;;;;6.70;2.00;;;;;;;26.87;31.87;99724.33;104807;1273;72990;-72
2022/06/24 13:14:33;;;;;;;8.20;2.10;;;;;;;26.84;31.87;99721.36;104813;1274;59761;-72
2022/06/24 13:17:20;;;;;;;7.20;2.10;;;;;;;26.87;31.57;99731.30;105261;1274;61599;-73